Time;durP1;ratioP1;P1;durP2;ratioP2;P2;SDS_P1;SDS_P2;PMS_P1;PMS_P2;Temp;Humidity;BMP_temperature;BMP_pressure;BME280_temperature;BME280_humidity;BME280_pressure;Samples;Min_cycle;Max_cycle;Signal;HPM_P1;HPM_P2
2023/03/18 00:01:03;;;;;;;2.93;1.00;;;10.50;82.60;;;;;;5090813;28;20808;-68
2023/03/18 00:03:31;;;;;;;3.17;1.50;;;10.40;82.40;;;;;;5078320;28;20526;-69
2023/03/18 00:06:12;;;;;;;1.93;1.03;;;10.40;82.50;;;;;;5089558;28;20871;-68
2023/03/18 00:08:39;;;;;;;2.70;1.37;;;10.40;83.30;;;;;;5072280;28;20935;-68
2023/03/18 00:11:06;;;;;;;3.40;1.30;;;10.40;83.40;;;;;;5073256;28;20438;-68
2023/03/18 00:13:33;;;;;;;4.37;1.30;;;10.40;83.80;;;;;;5081977;28;20425;-68
2023/03/18 00:16:00;;;;;;;5.50;1.53;;;10.40;83.30;;;;;;5091100;28;20720;-68
2023/03/18 00:18:26;;;;;;;2.80;1.40;;;10.40;82.90;;;;;;5076682;28;20430;-68
2023/03/18 00:20:52;;;;;;;1.90;1.00;;;10.40;83.10;;;;;;5088328;28;20897;-68
2023/03/18 00:23:18;;;;;;;4.40;1.60;;;10.40;82.50;;;;;;5075349;28;20482;-67
2023/03/18 00:25:47;;;;;;;1.80;0.70;;;10.50;82.70;;;;;;5082791;28;20181;-67
2023/03/18 00:28:12;;;;;;;5.57;1.00;;;10.50;82.50;;;;;;5083590;28;20418;-67
2023/03/18 00:30:40;;;;;;;1.83;0.80;;;10.50;82.40;;;;;;5090811;28;20417;-68
2023/03/18 00:33:07;;;;;;;6.50;1.43;;;10.50;81.90;;;;;;5082500;28;20178;-67
2023/03/18 00:35:33;;;;;;;3.70;1.23;;;10.50;81.90;;;;;;5090363;28;20427;-66
2023/03/18 00:37:59;;;;;;;3.07;1.63;;;10.50;81.50;;;;;;5079945;28;20489;-67
2023/03/18 00:40:41;;;;;;;1.80;0.93;;;10.50;81.40;;;;;;5090516;28;20421;-67
2023/03/18 00:43:08;;;;;;;2.67;1.37;;;10.50;81.40;;;;;;5089635;28;21009;-67
2023/03/18 00:45:37;;;;;;;2.57;0.70;;;10.40;81.90;;;;;;5078891;28;20421;-67
2023/03/18 00:48:03;;;;;;;2.90;1.10;;;10.30;82.10;;;;;;5076685;28;20414;-67
2023/03/18 00:50:29;;;;;;;2.10;1.13;;;10.30;82.30;;;;;;5091247;28;20420;-67
2023/03/18 00:52:55;;;;;;;3.17;1.30;;;10.20;82.70;;;;;;5089791;28;20192;-67
2023/03/18 00:55:21;;;;;;;2.13;0.90;;;10.30;81.40;;;;;;5090820;28;20667;-67
2023/03/18 00:57:47;;;;;;;3.83;1.37;;;10.30;81.40;;;;;;5075614;28;20434;-67
2023/03/18 01:00:15;;;;;;;3.67;0.70;;;10.40;80.80;;;;;;5079414;28;20731;-67
2023/03/18 01:02:42;;;;;;;2.50;1.27;;;10.50;80.50;;;;;;5088634;28;20298;-67
2023/03/18 01:05:10;;;;;;;3.20;1.00;;;10.50;80.50;;;;;;5089766;28;20798;-67
2023/03/18 01:07:36;;;;;;;2.03;1.00;;;10.50;80.50;;;;;;5083586;28;20426;-67
2023/03/18 01:10:02;;;;;;;2.50;0.80;;;10.40;80.70;;;;;;5077598;28;20415;-67
2023/03/18 01:12:28;;;;;;;1.30;0.63;;;10.40;81.30;;;;;;5087436;28;20423;-67
2023/03/18 01:14:53;;;;;;;1.77;0.63;;;10.40;80.80;;;;;;5085854;28;20411;-67
2023/03/18 01:17:19;;;;;;;4.60;1.03;;;10.40;81.30;;;;;;5094807;28;20176;-67
2023/03/18 01:19:47;;;;;;;1.30;0.60;;;10.30;81.80;;;;;;5094269;28;20180;-67
2023/03/18 01:22:13;;;;;;;1.50;0.70;;;10.20;81.90;;;;;;5084998;28;20539;-67
2023/03/18 01:24:39;;;;;;;3.30;1.50;;;10.20;82.10;;;;;;5086068;28;20450;-67
2023/03/18 01:27:05;;;;;;;1.97;1.10;;;10.20;82.90;;;;;;5094023;28;20442;-67
2023/03/18 01:29:30;;;;;;;2.60;1.10;;;10.10;83.30;;;;;;5092644;28;20680;-67
2023/03/18 01:31:56;;;;;;;1.93;0.77;;;10.00;83.60;;;;;;5074178;28;20177;-67
2023/03/18 01:34:22;;;;;;;1.80;0.90;;;10.00;83.00;;;;;;5073122;28;20260;-67
2023/03/18 01:36:48;;;;;;;2.03;1.00;;;10.10;82.60;;;;;;5091097;28;20183;-67
2023/03/18 01:39:16;;;;;;;1.70;0.67;;;10.10;81.60;;;;;;5084499;28;20501;-68
2023/03/18 01:41:42;;;;;;;5.87;1.00;;;10.20;81.50;;;;;;5078955;28;20527;-68
2023/03/18 01:44:18;;;;;;;1.53;0.60;;;10.20;80.80;;;;;;5090790;28;20474;-68
2023/03/18 01:46:48;;;;;;;1.63;0.70;;;10.20;81.00;;;;;;5068287;28;20407;-68
2023/03/18 01:49:25;;;;;;;3.27;1.27;;;10.30;81.20;;;;;;5085912;28;20448;-68
2023/03/18 01:51:57;;;;;;;2.27;1.23;;;10.30;81.00;;;;;;5082202;28;20406;-68
2023/03/18 01:54:24;;;;;;;2.50;1.10;;;10.30;81.00;;;;;;5077461;28;20446;-68
2023/03/18 01:56:51;;;;;;;3.60;1.20;;;10.30;81.50;;;;;;5093098;28;20414;-68
2023/03/18 01:59:18;;;;;;;2.63;1.03;;;10.30;82.70;;;;;;5092144;28;20711;-68
2023/03/18 02:01:50;;;;;;;1.73;0.80;;;10.20;81.80;;;;;;5091921;28;20510;-68
2023/03/18 02:04:17;;;;;;;2.80;0.80;;;10.00;82.50;;;;;;5092523;28;20488;-68
2023/03/18 02:06:43;;;;;;;2.03;1.00;;;10.10;82.60;;;;;;5081050;28;20430;-68
2023/03/18 02:09:10;;;;;;;2.20;0.90;;;10.00;82.70;;;;;;5075909;28;20410;-68
2023/03/18 02:11:42;;;;;;;3.30;1.10;;;10.00;83.00;;;;;;5073805;28;20439;-68
2023/03/18 02:14:12;;;;;;;1.93;0.70;;;10.00;82.70;;;;;;5076189;28;20445;-68
2023/03/18 02:16:44;;;;;;;1.20;0.50;;;10.00;82.20;;;;;;5093415;28;20434;-68
2023/03/18 02:19:34;;;;;;;3.13;1.07;;;10.00;82.80;;;;;;5091679;28;20775;-67
2023/03/18 02:22:08;;;;;;;1.40;0.63;;;10.00;82.70;;;;;;5093444;28;20516;-68
2023/03/18 02:25:01;;;;;;;2.00;0.80;;;10.00;82.60;;;;;;5083742;28;20449;-68
2023/03/18 02:27:31;;;;;;;1.60;0.80;;;10.00;83.30;;;;;;5070669;28;20499;-68
2023/03/18 02:30:01;;;;;;;2.50;0.73;;;10.00;82.60;;;;;;5060646;28;20413;-67
2023/03/18 02:32:29;;;;;;;4.30;0.60;;;10.00;82.40;;;;;;5062877;28;20566;-67
2023/03/18 02:34:58;;;;;;;1.83;0.80;;;10.00;82.50;;;;;;5077261;28;20399;-68
2023/03/18 02:37:23;;;;;;;2.60;1.07;;;10.10;82.30;;;;;;5073254;28;20430;-68
2023/03/18 02:39:49;;;;;;;1.43;0.73;;;10.10;82.00;;;;;;5074802;28;21044;-68
2023/03/18 02:42:17;;;;;;;4.93;1.50;;;10.10;82.50;;;;;;5092081;28;20212;-68
2023/03/18 02:44:44;;;;;;;1.57;0.83;;;10.10;82.00;;;;;;5075767;28;20311;-68
2023/03/18 02:47:20;;;;;;;3.37;0.73;;;10.20;82.40;;;;;;5071698;28;20461;-68
2023/03/18 02:49:46;;;;;;;3.10;0.80;;;10.10;82.70;;;;;;5090347;28;20426;-68
2023/03/18 02:52:11;;;;;;;1.70;1.00;;;10.10;81.50;;;;;;5091514;28;20414;-68
2023/03/18 02:54:37;;;;;;;2.17;1.20;;;10.30;81.40;;;;;;5090873;28;20184;-68
2023/03/18 02:57:03;;;;;;;1.37;0.63;;;10.30;81.40;;;;;;5091777;28;20188;-68
2023/03/18 02:59:31;;;;;;;1.37;0.67;;;10.30;81.40;;;;;;5091115;28;20188;-68
2023/03/18 03:01:56;;;;;;;2.03;0.87;;;10.20;82.00;;;;;;5091325;28;20172;-68
2023/03/18 03:04:24;;;;;;;2.60;1.13;;;10.10;82.70;;;;;;5091320;28;20927;-68
2023/03/18 03:06:53;;;;;;;4.50;1.63;;;10.00;82.60;;;;;;5087846;28;20199;-68
2023/03/18 03:09:19;;;;;;;1.67;0.70;;;9.90;84.00;;;;;;5074632;28;20423;-68
2023/03/18 03:11:45;;;;;;;2.47;0.70;;;9.90;83.90;;;;;;5082520;28;20421;-68
2023/03/18 03:14:13;;;;;;;3.17;0.80;;;9.90;83.90;;;;;;5090355;28;20253;-68
2023/03/18 03:16:39;;;;;;;4.03;1.33;;;9.80;83.90;;;;;;5091361;28;20415;-69
2023/03/18 03:19:05;;;;;;;1.30;0.70;;;9.80;84.00;;;;;;5080434;28;20453;-69
2023/03/18 03:21:32;;;;;;;1.70;0.77;;;9.80;84.30;;;;;;5068097;28;20614;-68
2023/03/18 03:23:58;;;;;;;2.50;0.97;;;9.70;84.40;;;;;;5086517;28;20668;-68
2023/03/18 03:26:24;;;;;;;11.90;1.27;;;9.80;84.40;;;;;;5071117;28;20526;-68
2023/03/18 03:28:50;;;;;;;1.30;0.60;;;9.70;84.70;;;;;;5090295;28;20497;-68
2023/03/18 03:31:16;;;;;;;1.87;0.80;;;9.70;85.00;;;;;;5077706;28;20491;-69
2023/03/18 03:33:42;;;;;;;1.63;0.70;;;9.60;85.50;;;;;;5090767;28;20418;-68
2023/03/18 03:36:14;;;;;;;1.77;0.70;;;9.50;85.60;;;;;;5091252;28;20504;-68
2023/03/18 03:38:40;;;;;;;1.60;0.70;;;9.50;85.60;;;;;;5082244;28;20414;-68
2023/03/18 03:41:09;;;;;;;2.83;0.87;;;9.50;86.00;;;;;;5076269;28;20518;-69
2023/03/18 03:43:38;;;;;;;2.17;0.80;;;9.50;86.00;;;;;;5077453;28;20442;-68
2023/03/18 03:46:04;;;;;;;1.73;0.70;;;9.40;85.70;;;;;;5075965;28;20838;-69
2023/03/18 03:48:30;;;;;;;3.57;0.93;;;9.40;85.80;;;;;;5079411;28;20509;-68
2023/03/18 03:50:56;;;;;;;1.33;0.73;;;9.40;85.50;;;;;;5090956;28;20425;-68
2023/03/18 03:53:22;;;;;;;1.50;0.70;;;9.40;85.60;;;;;;5082012;28;21055;-68
2023/03/18 03:55:48;;;;;;;1.97;0.90;;;9.40;85.80;;;;;;5085954;28;20192;-68
2023/03/18 03:58:13;;;;;;;5.33;1.23;;;9.30;87.10;;;;;;5090248;28;20283;-68
2023/03/18 04:00:39;;;;;;;2.87;0.80;;;9.30;86.20;;;;;;5090673;28;20501;-68
2023/03/18 04:03:05;;;;;;;2.00;0.77;;;9.30;85.70;;;;;;5090322;28;20200;-69
2023/03/18 04:05:30;;;;;;;4.73;1.00;;;9.30;86.00;;;;;;5090903;28;20172;-68
2023/03/18 04:07:58;;;;;;;2.40;1.17;;;9.30;85.70;;;;;;5075868;28;20282;-67
2023/03/18 04:10:26;;;;;;;7.67;1.37;;;9.30;87.20;;;;;;5072156;28;20231;-68
2023/03/18 04:12:52;;;;;;;2.57;1.00;;;9.20;86.30;;;;;;5090020;28;20417;-67
2023/03/18 04:15:20;;;;;;;3.73;1.00;;;9.20;86.40;;;;;;5090557;28;20422;-68
2023/03/18 04:17:46;;;;;;;2.13;0.80;;;9.20;86.30;;;;;;5090547;28;20181;-67
2023/03/18 04:20:13;;;;;;;1.80;0.90;;;9.20;86.40;;;;;;5091186;28;20422;-68
2023/03/18 04:22:40;;;;;;;2.83;1.07;;;9.20;86.50;;;;;;5078625;28;20416;-67
2023/03/18 04:25:07;;;;;;;4.03;1.37;;;9.20;86.60;;;;;;5086698;28;21055;-68
2023/03/18 04:27:33;;;;;;;2.40;0.90;;;9.20;86.40;;;;;;5081047;28;20412;-67
2023/03/18 04:29:59;;;;;;;2.47;1.00;;;9.20;86.90;;;;;;5086246;28;20414;-68
2023/03/18 04:32:25;;;;;;;2.37;0.67;;;9.20;86.80;;;;;;5080899;28;20465;-67
2023/03/18 04:34:50;;;;;;;2.50;0.70;;;9.10;86.90;;;;;;5084903;28;20426;-68
2023/03/18 04:37:18;;;;;;;2.20;1.00;;;9.00;87.10;;;;;;5086184;28;20303;-68
2023/03/18 04:39:46;;;;;;;1.50;0.70;;;8.90;87.80;;;;;;5086346;28;20187;-67
2023/03/18 04:42:12;;;;;;;1.57;0.70;;;8.90;88.30;;;;;;5092125;28;20446;-68
2023/03/18 04:44:38;;;;;;;3.83;1.00;;;8.80;88.00;;;;;;5089782;28;20470;-67
2023/03/18 04:47:04;;;;;;;1.70;0.63;;;8.70;88.10;;;;;;5074099;28;20415;-68
2023/03/18 04:49:30;;;;;;;1.80;0.90;;;8.70;88.20;;;;;;5090441;28;20894;-67
2023/03/18 04:51:55;;;;;;;3.30;1.40;;;8.70;88.50;;;;;;5093942;28;20177;-68
2023/03/18 04:54:21;;;;;;;2.00;0.87;;;8.60;88.70;;;;;;5093263;28;20668;-67
2023/03/18 04:56:47;;;;;;;1.70;0.80;;;8.60;89.00;;;;;;5084360;28;20183;-68
2023/03/18 04:59:12;;;;;;;4.57;0.87;;;8.50;89.00;;;;;;5086767;28;20189;-68
2023/03/18 05:01:38;;;;;;;3.90;1.40;;;8.60;89.00;;;;;;5083232;28;20181;-68
2023/03/18 05:04:05;;;;;;;5.60;1.43;;;8.50;89.20;;;;;;5093529;28;20312;-68
2023/03/18 05:06:32;;;;;;;2.10;0.97;;;8.50;89.80;;;;;;5093504;28;20168;-68
2023/03/18 05:08:59;;;;;;;7.53;1.53;;;8.40;90.10;;;;;;5075866;28;20879;-68
2023/03/18 05:11:25;;;;;;;2.20;1.10;;;8.30;90.50;;;;;;5082705;28;20427;-67
2023/03/18 05:13:51;;;;;;;2.40;0.97;;;8.10;90.60;;;;;;5079159;28;20718;-68
2023/03/18 05:16:17;;;;;;;1.80;1.00;;;8.00;90.80;;;;;;5093834;28;20421;-67
2023/03/18 05:18:43;;;;;;;3.23;1.03;;;8.00;91.20;;;;;;5093525;28;20267;-68
2023/03/18 05:21:09;;;;;;;3.20;1.07;;;7.90;91.40;;;;;;5088515;28;20425;-69
2023/03/18 05:23:35;;;;;;;7.83;2.30;;;7.70;91.50;;;;;;5078630;28;20512;-68
2023/03/18 05:26:02;;;;;;;10.10;1.53;;;7.60;91.80;;;;;;5093424;28;20422;-68
2023/03/18 05:28:28;;;;;;;5.13;2.30;;;7.60;92.00;;;;;;5092826;28;20584;-67
2023/03/18 05:30:54;;;;;;;8.60;2.70;;;7.60;92.10;;;;;;5093621;28;20501;-68
2023/03/18 05:33:19;;;;;;;9.73;2.20;;;7.60;91.90;;;;;;5092808;28;20229;-69
2023/03/18 05:35:45;;;;;;;6.27;1.90;;;7.60;92.00;;;;;;5093459;28;20181;-69
2023/03/18 05:38:11;;;;;;;4.53;2.03;;;7.50;92.20;;;;;;5080983;28;20181;-68
2023/03/18 05:40:38;;;;;;;1.70;0.90;;;7.50;92.20;;;;;;5081813;28;20180;-68
2023/03/18 05:43:04;;;;;;;3.63;1.53;;;7.40;92.20;;;;;;5092045;28;20825;-68
2023/03/18 05:45:30;;;;;;;1.67;1.13;;;7.40;92.20;;;;;;5081293;28;20522;-68
2023/03/18 05:47:56;;;;;;;3.93;1.30;;;7.40;92.30;;;;;;5078208;28;20505;-68
2023/03/18 05:50:38;;;;;;;3.20;0.87;;;7.40;92.40;;;;;;5093211;28;20418;-68
2023/03/18 05:53:05;;;;;;;4.83;0.83;;;7.40;92.70;;;;;;5085611;28;20718;-69
2023/03/18 05:55:32;;;;;;;3.13;1.10;;;7.30;92.70;;;;;;5086445;28;20423;-68
2023/03/18 05:57:59;;;;;;;3.10;1.20;;;7.20;92.90;;;;;;5086074;28;20435;-68
2023/03/18 06:00:27;;;;;;;2.30;0.90;;;7.20;92.90;;;;;;5086386;28;20902;-68
2023/03/18 06:02:53;;;;;;;1.20;0.50;;;7.20;93.00;;;;;;5085410;28;20459;-68
2023/03/18 06:05:20;;;;;;;1.37;0.60;;;7.10;93.30;;;;;;5086138;28;20913;-68
2023/03/18 06:07:46;;;;;;;2.63;0.87;;;7.00;93.70;;;;;;5080067;28;20435;-68
2023/03/18 06:10:12;;;;;;;3.20;1.43;;;6.90;94.00;;;;;;5076217;28;20427;-68
2023/03/18 06:12:39;;;;;;;1.67;0.83;;;6.90;94.20;;;;;;5091960;28;20418;-68
2023/03/18 06:15:09;;;;;;;3.20;1.27;;;6.80;94.20;;;;;;5078661;28;20430;-68
2023/03/18 06:17:35;;;;;;;2.37;0.80;;;6.80;94.40;;;;;;5092695;28;20407;-68
2023/03/18 06:20:03;;;;;;;2.33;0.90;;;6.80;94.60;;;;;;5078425;28;21122;-68
2023/03/18 06:22:30;;;;;;;3.47;1.30;;;6.70;94.60;;;;;;5077977;28;20180;-68
2023/03/18 06:24:56;;;;;;;1.90;1.03;;;6.70;94.90;;;;;;5073593;28;20856;-68
2023/03/18 06:27:22;;;;;;;2.90;1.20;;;6.70;95.10;;;;;;5092534;28;20411;-67
2023/03/18 06:29:48;;;;;;;2.73;1.50;;;6.70;95.20;;;;;;5091628;28;20200;-67
2023/03/18 06:32:14;;;;;;;3.20;1.17;;;6.80;95.10;;;;;;5091981;28;20180;-68
2023/03/18 06:34:40;;;;;;;3.17;1.00;;;6.80;95.20;;;;;;5091972;28;20548;-67
2023/03/18 06:37:06;;;;;;;1.93;0.70;;;6.80;95.30;;;;;;5088384;28;20427;-68
2023/03/18 06:39:33;;;;;;;2.40;0.80;;;6.80;95.20;;;;;;5085493;28;20414;-68
2023/03/18 06:41:59;;;;;;;1.70;0.77;;;6.90;95.30;;;;;;5084973;28;20784;-68
2023/03/18 06:44:25;;;;;;;3.10;1.03;;;6.90;95.40;;;;;;5081950;28;20466;-68
2023/03/18 06:46:51;;;;;;;3.13;1.87;;;6.90;95.60;;;;;;5071461;28;20169;-68
2023/03/18 06:49:16;;;;;;;5.67;1.37;;;7.00;95.40;;;;;;5086521;28;20894;-68
2023/03/18 06:51:42;;;;;;;2.47;1.60;;;7.00;95.30;;;;;;5091505;28;20184;-68
2023/03/18 06:54:08;;;;;;;2.43;1.53;;;7.10;95.10;;;;;;5091688;28;20668;-69
2023/03/18 06:56:37;;;;;;;5.83;1.67;;;7.20;94.90;;;;;;5092165;28;20177;-68
2023/03/18 06:59:04;;;;;;;3.30;1.70;;;7.40;95.20;;;;;;5089413;28;20849;-68
2023/03/18 07:01:31;;;;;;;4.10;1.60;;;7.50;94.80;;;;;;5080246;28;20414;-68
2023/03/18 07:03:59;;;;;;;2.17;1.27;;;7.60;94.50;;;;;;5090670;28;20624;-68
2023/03/18 07:06:25;;;;;;;4.47;1.00;;;7.80;94.80;;;;;;5091613;28;20413;-68
2023/03/18 07:08:51;;;;;;;2.03;0.90;;;8.00;94.30;;;;;;5071324;28;20411;-69
2023/03/18 07:11:18;;;;;;;1.90;0.90;;;8.30;93.30;;;;;;5081799;28;20406;-68
2023/03/18 07:13:43;;;;;;;2.10;1.00;;;8.50;92.60;;;;;;5088715;28;20188;-68
2023/03/18 07:16:09;;;;;;;2.00;0.97;;;8.90;92.40;;;;;;5090415;28;20899;-68
2023/03/18 07:18:36;;;;;;;4.97;1.70;;;9.20;91.80;;;;;;5077582;28;20284;-68
2023/03/18 07:21:02;;;;;;;2.73;1.60;;;9.60;91.50;;;;;;5082153;28;20181;-68
2023/03/18 07:23:28;;;;;;;7.63;1.20;;;9.80;90.70;;;;;;5079475;28;20506;-68
2023/03/18 07:25:54;;;;;;;2.60;1.13;;;10.10;89.50;;;;;;5091742;28;20442;-68
2023/03/18 07:28:19;;;;;;;1.97;0.97;;;10.30;89.00;;;;;;5090938;28;20176;-68
2023/03/18 07:30:45;;;;;;;2.10;0.83;;;10.70;87.60;;;;;;5091120;28;20259;-68
2023/03/18 07:33:12;;;;;;;2.47;1.00;;;11.20;85.20;;;;;;5090471;28;20215;-68
2023/03/18 07:35:40;;;;;;;1.93;0.80;;;11.90;82.60;;;;;;5091408;28;20184;-68
2023/03/18 07:38:09;;;;;;;1.77;0.90;;;12.70;80.30;;;;;;5077257;28;20420;-68
2023/03/18 07:40:35;;;;;;;5.63;0.97;;;13.20;79.10;;;;;;5091277;28;20418;-68
2023/03/18 07:43:01;;;;;;;6.67;1.10;;;13.80;77.90;;;;;;5089888;28;20478;-68
2023/03/18 07:45:28;;;;;;;2.07;0.77;;;14.10;77.90;;;;;;5079512;28;20457;-68
2023/03/18 07:47:53;;;;;;;1.70;0.80;;;14.90;73.70;;;;;;5075190;28;20165;-68
2023/03/18 07:50:19;;;;;;;1.87;0.70;;;15.30;73.90;;;;;;5081184;28;20415;-68
2023/03/18 07:52:44;;;;;;;1.50;0.80;;;16.30;70.20;;;;;;5086395;28;20180;-68
2023/03/18 07:55:11;;;;;;;1.87;0.80;;;16.50;69.60;;;;;;5090872;28;20255;-68
2023/03/18 07:57:37;;;;;;;1.70;0.80;;;17.50;65.60;;;;;;5076880;28;20221;-68
2023/03/18 08:00:04;;;;;;;2.57;1.00;;;17.60;64.40;;;;;;5090645;28;20789;-67
2023/03/18 08:02:30;;;;;;;1.30;0.50;;;17.90;64.20;;;;;;5086694;28;20415;-67
2023/03/18 08:04:56;;;;;;;9.90;1.30;;;18.30;61.60;;;;;;5080964;28;20511;-67
2023/03/18 08:07:23;;;;;;;2.00;0.70;;;18.30;61.40;;;;;;5082835;28;20177;-67
2023/03/18 08:09:49;;;;;;;2.37;0.60;;;18.30;60.70;;;;;;5070258;28;20523;-67
2023/03/18 08:12:15;;;;;;;3.20;0.93;;;18.20;60.10;;;;;;5073383;28;20443;-67
2023/03/18 08:14:42;;;;;;;2.27;0.93;;;18.60;60.60;;;;;;5079438;28;20801;-67
2023/03/18 08:17:08;;;;;;;3.00;0.93;;;18.60;60.10;;;;;;5077140;28;20431;-67
2023/03/18 08:19:34;;;;;;;3.93;1.10;;;18.80;59.20;;;;;;5093399;28;20426;-67
2023/03/18 08:22:00;;;;;;;1.30;0.50;;;19.50;57.00;;;;;;5083770;28;20562;-67
2023/03/18 08:24:26;;;;;;;1.80;0.90;;;19.30;56.60;;;;;;5085203;28;20486;-68
2023/03/18 08:26:52;;;;;;;1.60;0.63;;;19.50;56.40;;;;;;5094220;28;20252;-67
2023/03/18 08:29:17;;;;;;;2.27;1.10;;;19.70;55.50;;;;;;5083377;28;20640;-67
2023/03/18 08:31:43;;;;;;;1.60;0.70;;;19.60;54.40;;;;;;5089950;28;20414;-67
2023/03/18 08:34:09;;;;;;;2.93;0.80;;;19.20;54.50;;;;;;5093865;28;20283;-67
2023/03/18 08:36:35;;;;;;;1.30;0.60;;;18.30;57.00;;;;;;5095176;28;20510;-67
2023/03/18 08:39:02;;;;;;;2.90;1.00;;;18.50;56.60;;;;;;5085544;28;20202;-67
2023/03/18 08:41:28;;;;;;;3.00;0.90;;;18.70;56.20;;;;;;5094772;28;20441;-67
2023/03/18 08:43:56;;;;;;;2.03;0.77;;;19.00;55.60;;;;;;5094052;28;20454;-67
2023/03/18 08:46:22;;;;;;;1.90;0.73;;;18.80;55.10;;;;;;5077250;28;20622;-67
2023/03/18 08:48:48;;;;;;;2.30;0.93;;;18.60;55.40;;;;;;5085280;28;20422;-67
2023/03/18 08:51:15;;;;;;;1.90;0.93;;;18.60;55.70;;;;;;5081324;28;20952;-67
2023/03/18 08:53:41;;;;;;;1.73;0.90;;;19.00;55.00;;;;;;5082712;28;20414;-67
2023/03/18 08:56:07;;;;;;;1.40;0.60;;;19.10;55.60;;;;;;5087869;28;20414;-67
2023/03/18 08:58:33;;;;;;;2.67;0.70;;;19.10;55.00;;;;;;5084679;28;20176;-65
2023/03/18 09:01:02;;;;;;;1.87;0.83;;;19.20;55.10;;;;;;5080649;28;20797;-65
2023/03/18 09:03:27;;;;;;;3.00;1.17;;;18.90;52.70;;;;;;5094280;28;20237;-65
2023/03/18 09:05:54;;;;;;;3.73;1.00;;;18.80;54.60;;;;;;5094404;28;20409;-65
2023/03/18 09:08:20;;;;;;;4.93;2.20;;;18.60;53.20;;;;;;5077695;28;20184;-65
2023/03/18 09:10:47;;;;;;;2.37;0.87;;;18.60;53.10;;;;;;5078508;28;20458;-65
2023/03/18 09:13:12;;;;;;;1.60;0.70;;;18.50;53.40;;;;;;5093540;28;20425;-61
2023/03/18 09:15:39;;;;;;;3.40;1.10;;;18.30;53.40;;;;;;5083304;28;20411;-61
2023/03/18 09:18:05;;;;;;;5.03;0.80;;;18.10;54.00;;;;;;5076713;28;20168;-61
2023/03/18 09:20:32;;;;;;;3.07;1.00;;;18.20;53.20;;;;;;5079499;28;20420;-61
2023/03/18 09:22:58;;;;;;;6.53;1.80;;;18.10;53.40;;;;;;5069566;28;20207;-61
2023/03/18 09:25:24;;;;;;;2.07;0.90;;;18.00;53.90;;;;;;5086558;28;20415;-61
2023/03/18 09:27:50;;;;;;;2.47;0.80;;;18.10;53.40;;;;;;5083390;28;20526;-61
2023/03/18 09:30:16;;;;;;;2.70;0.90;;;17.70;53.30;;;;;;5093054;28;20818;-63
2023/03/18 09:32:42;;;;;;;2.37;1.13;;;17.50;53.80;;;;;;5067661;28;20855;-67
2023/03/18 09:35:08;;;;;;;3.43;1.23;;;17.60;54.70;;;;;;5074824;28;20565;-67
2023/03/18 09:37:35;;;;;;;3.83;0.80;;;17.60;54.40;;;;;;5071724;28;20626;-66
2023/03/18 09:40:00;;;;;;;1.30;0.50;;;17.50;53.80;;;;;;5075370;28;20421;-67
2023/03/18 09:42:57;;;;;;;4.40;0.97;;;17.40;54.60;;;;;;5080905;28;20438;-66
2023/03/18 09:45:49;;;;;;;9.80;1.40;;;17.40;55.00;;;;;;5080488;28;20184;-67
2023/03/18 09:48:23;;;;;;;3.87;0.80;;;17.50;56.90;;;;;;5069760;28;20414;-66
2023/03/18 09:51:07;;;;;;;1.40;0.60;;;17.40;55.10;;;;;;5090221;28;20503;-66
2023/03/18 09:53:49;;;;;;;2.47;0.60;;;17.20;56.20;;;;;;5090983;28;20414;-66
2023/03/18 09:56:23;;;;;;;1.60;0.80;;;17.00;56.60;;;;;;5092263;28;20421;-66
2023/03/18 09:59:04;;;;;;;2.47;1.00;;;16.80;55.20;;;;;;5091910;28;20441;-67
2023/03/18 10:01:34;;;;;;;1.77;0.93;;;16.80;56.60;;;;;;5091339;28;20425;-66
2023/03/18 10:04:14;;;;;;;2.77;1.10;;;16.60;56.00;;;;;;5091643;28;20557;-66
2023/03/18 10:06:43;;;;;;;2.80;0.70;;;16.40;57.30;;;;;;5089901;28;20446;-67
2023/03/18 10:09:29;;;;;;;3.53;0.70;;;16.40;58.30;;;;;;5071849;28;20472;-66
2023/03/18 10:12:24;;;;;;;2.43;1.13;;;16.30;58.30;;;;;;5082931;28;20408;-67
2023/03/18 10:15:18;;;;;;;1.60;0.60;;;16.30;57.50;;;;;;5092165;28;20918;-66
2023/03/18 10:18:20;;;;;;;2.07;0.73;;;16.40;58.00;;;;;;5092494;28;20521;-66
2023/03/18 10:21:07;;;;;;;2.13;0.90;;;16.50;57.20;;;;;;5089854;28;20807;-67
2023/03/18 10:23:57;;;;;;;2.13;1.13;;;16.60;58.10;;;;;;5086226;28;20500;-64
2023/03/18 10:26:28;;;;;;;2.70;0.90;;;16.60;60.60;;;;;;5091730;28;20451;-63
2023/03/18 10:29:07;;;;;;;2.33;0.97;;;16.60;58.60;;;;;;5085724;28;20454;-63
2023/03/18 10:32:02;;;;;;;7.90;1.47;;;16.60;59.70;;;;;;5076714;28;20919;-63
2023/03/18 10:34:56;;;;;;;2.70;0.93;;;16.70;58.10;;;;;;5092000;28;20406;-63
2023/03/18 10:37:54;;;;;;;1.40;0.50;;;16.70;59.00;;;;;;5063113;28;21190;-63
2023/03/18 10:40:23;;;;;;;2.17;1.20;;;16.70;59.30;;;;;;5054525;28;20422;-63
2023/03/18 10:42:51;;;;;;;5.17;1.57;;;16.70;58.00;;;;;;5090347;28;20434;-66
2023/03/18 10:45:26;;;;;;;1.63;0.87;;;16.70;59.00;;;;;;5081009;28;20416;-66
2023/03/18 10:48:11;;;;;;;4.97;1.13;;;16.70;58.90;;;;;;5074206;28;20444;-66
2023/03/18 10:50:42;;;;;;;2.13;1.20;;;16.80;60.10;;;;;;5089458;28;20411;-67
2023/03/18 10:53:26;;;;;;;1.97;1.00;;;16.80;59.90;;;;;;5089367;28;20720;-67
2023/03/18 10:56:05;;;;;;;3.47;1.43;;;17.00;59.00;;;;;;5088575;28;20936;-66
2023/03/18 10:58:31;;;;;;;2.27;0.80;;;17.10;58.20;;;;;;5070239;28;20592;-66
2023/03/18 11:00:57;;;;;;;3.70;1.50;;;17.20;59.50;;;;;;5084504;28;20536;-66
2023/03/18 11:03:29;;;;;;;2.37;0.93;;;17.20;59.30;;;;;;5081296;28;20192;-66
2023/03/18 11:05:57;;;;;;;2.50;1.13;;;17.20;59.20;;;;;;5090932;28;20417;-67
2023/03/18 11:08:41;;;;;;;3.83;0.90;;;17.30;58.40;;;;;;5074019;28;20931;-66
2023/03/18 11:11:33;;;;;;;2.53;0.60;;;17.10;57.20;;;;;;5076310;28;20757;-66
2023/03/18 11:14:02;;;;;;;1.70;0.70;;;17.30;58.00;;;;;;5060407;28;20926;-66
2023/03/18 11:17:05;;;;;;;2.40;1.10;;;17.40;58.40;;;;;;5090969;28;20425;-66
2023/03/18 11:19:37;;;;;;;2.17;1.03;;;17.60;57.90;;;;;;5080607;28;20415;-66
2023/03/18 11:22:12;;;;;;;1.73;0.87;;;17.60;60.00;;;;;;5079746;28;20501;-66
2023/03/18 11:24:41;;;;;;;1.77;0.73;;;17.70;56.90;;;;;;5078154;28;20502;-66
2023/03/18 11:27:13;;;;;;;4.50;1.03;;;17.60;58.30;;;;;;5070165;28;20427;-66
2023/03/18 11:29:42;;;;;;;1.60;0.70;;;17.60;58.00;;;;;;5083175;28;20414;-66
2023/03/18 11:32:29;;;;;;;6.03;1.00;;;17.60;58.60;;;;;;5083663;28;20944;-66
2023/03/18 11:34:56;;;;;;;1.93;0.97;;;17.80;57.30;;;;;;5090391;28;20411;-66
2023/03/18 11:37:36;;;;;;;1.80;0.83;;;17.80;56.80;;;;;;5085321;28;20502;-66
2023/03/18 11:40:18;;;;;;;1.73;0.90;;;17.90;57.00;;;;;;5089186;28;20494;-67
2023/03/18 11:42:52;;;;;;;2.23;0.73;;;18.20;56.40;;;;;;5089345;28;20438;-66
2023/03/18 11:45:45;;;;;;;1.63;0.73;;;18.20;55.60;;;;;;5078829;28;20416;-66
2023/03/18 11:48:16;;;;;;;1.90;0.60;;;18.20;54.20;;;;;;5076661;28;20915;-67
2023/03/18 11:51:12;;;;;;;1.77;0.70;;;18.20;54.00;;;;;;5089932;28;20713;-67
2023/03/18 11:54:15;;;;;;;1.90;0.90;;;18.30;55.70;;;;;;5078954;28;20430;-67
2023/03/18 11:56:43;;;;;;;2.03;0.60;;;18.40;52.40;;;;;;5090217;28;20410;-66
2023/03/18 11:59:42;;;;;;;2.43;0.80;;;18.40;52.50;;;;;;5089539;28;20418;-66
2023/03/18 12:02:33;;;;;;;2.20;0.80;;;18.30;55.80;;;;;;5088199;28;20460;-67
2023/03/18 12:05:46;;;;;;;6.10;1.17;;;18.50;54.30;;;;;;5090072;28;21222;-67
2023/03/18 12:08:27;;;;;;;1.80;0.63;;;18.60;54.10;;;;;;5069196;28;20415;-66
2023/03/18 12:11:06;;;;;;;5.10;1.10;;;18.50;54.80;;;;;;5073050;28;20502;-66
2023/03/18 12:13:38;;;;;;;1.30;0.50;;;18.80;56.00;;;;;;5083136;28;20917;-66
2023/03/18 12:16:13;;;;;;;4.80;1.23;;;18.80;55.60;;;;;;5089743;28;21047;-68
2023/03/18 12:19:10;;;;;;;1.90;0.60;;;19.00;53.20;;;;;;5076325;28;20437;-67
2023/03/18 12:21:42;;;;;;;2.70;0.90;;;19.20;55.00;;;;;;5081197;28;20458;-67
2023/03/18 12:24:26;;;;;;;1.60;0.70;;;19.20;54.60;;;;;;5081635;28;20859;-66
2023/03/18 12:27:11;;;;;;;2.33;0.80;;;19.50;50.90;;;;;;5073299;28;20403;-67
2023/03/18 12:30:19;;;;;;;3.67;1.23;;;19.10;51.40;;;;;;5088947;28;20759;-66
2023/03/18 12:33:09;;;;;;;8.70;1.67;;;19.00;53.10;;;;;;5059502;28;20432;-67
2023/03/18 12:36:07;;;;;;;3.00;1.13;;;19.30;56.00;;;;;;5050108;28;20438;-66
2023/03/18 12:39:14;;;;;;;6.93;1.00;;;19.40;51.40;;;;;;5073356;28;20468;-67
2023/03/18 12:42:10;;;;;;;1.67;0.80;;;19.50;52.60;;;;;;5086364;28;20433;-66
2023/03/18 12:45:00;;;;;;;2.30;0.93;;;19.50;50.70;;;;;;5088059;28;20833;-67
2023/03/18 12:47:40;;;;;;;3.73;1.10;;;19.50;51.90;;;;;;5063703;28;20472;-68
2023/03/18 12:50:14;;;;;;;1.40;0.60;;;19.40;51.60;;;;;;5089957;28;20402;-67
2023/03/18 12:53:02;;;;;;;2.80;0.70;;;19.50;50.10;;;;;;5089191;28;20541;-65
2023/03/18 12:55:35;;;;;;;7.43;0.80;;;19.50;49.30;;;;;;5090152;28;20426;-67
2023/03/18 12:58:24;;;;;;;1.53;0.60;;;19.50;48.20;;;;;;5089284;28;20410;-67
2023/03/18 13:00:58;;;;;;;1.40;0.50;;;19.50;51.80;;;;;;5086644;28;20827;-67
2023/03/18 13:03:41;;;;;;;5.47;1.13;;;19.60;49.90;;;;;;5082272;28;20957;-67
2023/03/18 13:06:34;;;;;;;1.53;0.70;;;19.80;51.40;;;;;;5093342;28;20434;-68
2023/03/18 13:09:31;;;;;;;1.93;0.80;;;19.80;50.80;;;;;;5075054;28;20413;-67